PZO weather

Public forecast

Using degrees Celsius for public forecast. Weather courtesy of forecast.io.

Current aviation weather report (METAR) for General Manuel Carlos Piar International Airport

Report is more than 6 hours old.

Retrieved 2016/04/05 16:00 UTC (4 years ago):

SVPR 051600Z 02008KT 9999 BKN020 XX/XX Q1016

Closest aviation forecast (TAF) to General Manuel Carlos Piar International Airport

Closest forecast is General José Antonio Anzoategui International Airport, 158.4 nm (293.3 km) NW. Retrieved 2020/08/10 12:03 UTC (4 hours ago):

TAF TAF SVBC 101000Z 1012/1112 12006KT 9999 SCT070 TX33/1018Z TN24/1008Z BECMG 1012/1016 06003KT 9999 SCT016